Time;durP1;ratioP1;P1;durP2;ratioP2;P2;SDS_P1;SDS_P2;PMS_P1;PMS_P2;Temp;Humidity;BMP_temperature;BMP_pressure;BME280_temperature;BME280_humidity;BME280_pressure;Samples;Min_cycle;Max_cycle;Signal;HPM_P1;HPM_P2
2021/12/13 00:01:55;;;;;;;0.75;0.70;;;16.40;62.00;;;;;;5097197;28;20090;-45
2021/12/13 00:04:28;;;;;;;0.70;0.70;;;16.30;62.00;;;;;;5099750;28;20032;-45
2021/12/13 00:06:57;;;;;;;1.80;1.10;;;16.30;62.00;;;;;;5086436;28;20044;-46
2021/12/13 00:09:25;;;;;;;1.10;0.85;;;16.30;62.00;;;;;;5127588;28;20025;-44
2021/12/13 00:11:52;;;;;;;;;;;16.30;62.00;;;;;;5055244;28;20141;-46
2021/12/13 00:14:21;;;;;;;1.05;0.80;;;16.30;62.10;;;;;;5127641;28;19909;-46
2021/12/13 00:16:57;;;;;;;0.70;0.70;;;16.20;62.00;;;;;;5051672;28;20030;-48
2021/12/13 00:19:24;;;;;;;1.42;1.00;;;16.20;62.00;;;;;;5039111;28;20029;-45
2021/12/13 00:21:57;;;;;;;2.38;0.82;;;16.20;62.00;;;;;;5038424;28;20493;-46
2021/12/13 00:24:26;;;;;;;0.75;0.75;;;16.20;62.00;;;;;;5038825;28;20044;-45
2021/12/13 00:27:12;;;;;;;1.30;0.85;;;16.20;62.10;;;;;;5038838;28;20026;-45
2021/12/13 00:29:55;;;;;;;1.52;0.98;;;16.20;62.10;;;;;;5096410;28;20141;-49
2021/12/13 00:32:56;;;;;;;0.70;0.70;;;16.20;62.20;;;;;;5100935;28;20033;-46
2021/12/13 00:35:24;;;;;;;0.70;0.70;;;16.20;62.60;;;;;;5038571;28;20051;-49
2021/12/13 00:37:57;;;;;;;2.75;0.98;;;16.30;62.60;;;;;;5038894;28;20036;-45
2021/12/13 00:40:32;;;;;;;1.38;1.00;;;16.30;62.60;;;;;;5038876;28;20050;-48
2021/12/13 00:43:08;;;;;;;2.72;0.80;;;16.30;62.60;;;;;;5038847;28;20025;-45
2021/12/13 00:45:36;;;;;;;0.93;0.80;;;16.20;62.50;;;;;;5110431;27;20037;-47
2021/12/13 00:48:04;;;;;;;1.25;1.05;;;16.20;62.50;;;;;;5042490;28;20029;-48
2021/12/13 00:50:43;;;;;;;1.33;0.77;;;16.20;62.60;;;;;;5040918;28;20035;-46
2021/12/13 00:53:09;;;;;;;1.02;0.85;;;16.10;62.50;;;;;;5041871;28;20033;-46
2021/12/13 00:55:35;;;;;;;1.23;1.10;;;16.10;62.50;;;;;;5042009;28;20055;-47
2021/12/13 00:58:28;;;;;;;1.10;0.80;;;16.20;62.70;;;;;;5110401;28;20032;-45
2021/12/13 01:01:00;;;;;;;0.85;0.80;;;16.30;63.10;;;;;;5052396;27;20040;-46
2021/12/13 01:03:34;;;;;;;1.05;0.95;;;16.30;63.00;;;;;;5062141;27;20051;-46
2021/12/13 01:06:37;;;;;;;0.73;0.63;;;16.30;63.60;;;;;;5061835;27;20165;-46
2021/12/13 01:09:54;;;;;;;2.05;0.80;;;16.30;62.90;;;;;;5061686;28;20036;-46
2021/12/13 01:12:21;;;;;;;0.98;0.90;;;16.20;62.80;;;;;;5061657;27;20032;-45
2021/12/13 01:15:05;;;;;;;1.20;0.90;;;16.20;62.70;;;;;;5061515;28;20648;-45
2021/12/13 01:17:57;;;;;;;0.95;0.90;;;16.20;62.70;;;;;;5052662;28;20120;-47
2021/12/13 01:20:42;;;;;;;1.00;0.88;;;16.10;62.70;;;;;;5060748;27;20017;-45
2021/12/13 01:23:15;;;;;;;1.08;0.80;;;16.10;62.60;;;;;;5061696;27;20093;-48
2021/12/13 01:25:47;;;;;;;1.42;0.80;;;16.10;62.70;;;;;;5110252;28;20021;-46
2021/12/13 01:28:15;;;;;;;0.98;0.88;;;16.20;63.20;;;;;;5041286;28;20029;-49
2021/12/13 01:30:47;;;;;;;1.10;0.88;;;16.30;63.10;;;;;;5106556;27;20038;-45
2021/12/13 01:33:13;;;;;;;0.60;0.60;;;16.30;63.00;;;;;;5084279;27;20385;-44
2021/12/13 01:35:43;;;;;;;0.75;0.60;;;16.30;62.90;;;;;;5061305;27;20159;-45
2021/12/13 01:38:33;;;;;;;0.93;0.80;;;16.20;62.80;;;;;;5061392;28;20025;-45
2021/12/13 01:41:01;;;;;;;0.77;0.77;;;16.20;62.70;;;;;;5061613;28;20064;-46
2021/12/13 01:43:29;;;;;;;1.17;0.90;;;16.20;62.70;;;;;;5061391;28;20020;-45
2021/12/13 01:45:56;;;;;;;2.17;0.98;;;16.10;62.70;;;;;;5061251;28;20120;-44
2021/12/13 01:48:43;;;;;;;1.02;0.75;;;16.20;62.80;;;;;;5061621;27;20050;-47
2021/12/13 01:51:11;;;;;;;1.13;0.80;;;16.20;63.20;;;;;;5060344;27;20033;-45
2021/12/13 01:53:55;;;;;;;0.80;0.80;;;16.30;63.10;;;;;;5061295;28;20037;-44
2021/12/13 01:59:43;;;;;;;0.82;0.82;;;16.30;62.90;;;;;;5040966;28;20063;-45
2021/12/13 02:02:20;;;;;;;0.95;0.85;;;16.30;62.80;;;;;;5040763;28;20092;-45
2021/12/13 02:05:05;;;;;;;0.93;0.82;;;16.20;62.70;;;;;;5041091;28;20030;-47
2021/12/13 02:07:46;;;;;;;1.08;0.98;;;16.20;62.80;;;;;;5041497;28;20090;-47
2021/12/13 02:10:37;;;;;;;1.20;1.10;;;16.10;62.70;;;;;;5078508;28;20073;-45
2021/12/13 02:13:17;;;;;;;1.20;0.80;;;16.20;62.80;;;;;;5082925;27;20032;-47
2021/12/13 02:18:31;;;;;;;1.08;0.80;;;16.30;63.10;;;;;;5079035;28;20059;-46
2021/12/13 02:21:05;;;;;;;1.40;1.05;;;16.30;62.90;;;;;;5068455;27;20048;-45
2021/12/13 02:23:36;;;;;;;1.00;0.90;;;16.30;62.80;;;;;;5060979;27;20048;-45
2021/12/13 02:26:02;;;;;;;1.50;0.98;;;16.20;63.40;;;;;;5060863;27;20032;-46
2021/12/13 02:28:30;;;;;;;1.30;1.20;;;16.20;62.70;;;;;;5060500;28;20032;-45
2021/12/13 02:31:01;;;;;;;1.13;1.02;;;16.20;62.80;;;;;;5040603;28;20030;-46
2021/12/13 02:33:33;;;;;;;1.02;0.93;;;16.10;62.70;;;;;;5040556;28;20478;-45
2021/12/13 02:36:18;;;;;;;1.30;0.90;;;16.20;62.80;;;;;;5040826;28;20041;-44
2021/12/13 02:38:46;;;;;;;1.33;0.90;;;16.30;63.10;;;;;;5040567;28;20044;-46
2021/12/13 02:41:13;;;;;;;1.20;1.00;;;16.30;63.00;;;;;;5108007;28;20026;-47
2021/12/13 02:43:43;;;;;;;1.77;1.30;;;16.30;62.80;;;;;;5054817;28;20041;-46
2021/12/13 02:46:09;;;;;;;1.67;1.35;;;16.30;62.70;;;;;;5060184;28;20587;-46
2021/12/13 02:48:38;;;;;;;1.55;1.33;;;16.20;62.60;;;;;;5060196;28;20093;-45
2021/12/13 02:51:21;;;;;;;1.58;1.02;;;16.20;62.70;;;;;;5059584;27;20111;-45
2021/12/13 02:53:50;;;;;;;1.40;1.00;;;16.20;62.70;;;;;;5060259;27;20033;-45
2021/12/13 02:56:18;;;;;;;2.42;1.10;;;16.10;62.70;;;;;;5060312;27;20048;-46
2021/12/13 02:58:45;;;;;;;1.40;1.30;;;16.20;62.90;;;;;;5059390;28;20025;-45
2021/12/13 03:01:13;;;;;;;2.33;1.25;;;16.30;63.00;;;;;;5059662;27;20129;-45
2021/12/13 03:03:43;;;;;;;1.20;1.10;;;16.30;62.80;;;;;;5060156;28;20116;-45
2021/12/13 03:06:10;;;;;;;1.75;1.35;;;16.30;62.60;;;;;;5059580;28;20033;-46
2021/12/13 03:08:43;;;;;;;1.98;1.30;;;16.30;62.60;;;;;;5058934;28;20034;-47
2021/12/13 03:11:23;;;;;;;2.47;1.30;;;16.20;62.60;;;;;;5060033;27;20047;-45
2021/12/13 03:13:53;;;;;;;2.22;1.23;;;16.20;62.70;;;;;;5060155;27;20031;-46
2021/12/13 03:16:20;;;;;;;1.52;1.25;;;16.20;62.80;;;;;;5059850;27;20041;-45
2021/12/13 03:19:00;;;;;;;1.67;1.20;;;16.20;62.90;;;;;;5059941;27;20029;-45
2021/12/13 03:22:04;;;;;;;1.45;1.27;;;16.30;62.80;;;;;;5127308;27;20059;-45
2021/12/13 03:24:36;;;;;;;1.30;1.17;;;16.30;62.50;;;;;;5061633;28;20025;-44
2021/12/13 03:27:08;;;;;;;1.45;1.25;;;16.30;62.50;;;;;;5059906;28;20111;-45
2021/12/13 03:30:03;;;;;;;1.58;1.20;;;16.20;62.40;;;;;;5059158;28;20025;-46
2021/12/13 03:32:37;;;;;;;2.72;1.42;;;16.20;62.50;;;;;;5059657;27;20033;-45
2021/12/13 03:35:23;;;;;;;1.83;1.63;;;16.10;62.50;;;;;;5059658;27;20062;-45
2021/12/13 03:38:01;;;;;;;1.50;1.27;;;16.10;62.50;;;;;;5059777;27;20089;-46
2021/12/13 03:40:28;;;;;;;2.00;1.40;;;16.20;62.70;;;;;;5059198;28;20108;-46
2021/12/13 03:42:56;;;;;;;1.73;1.50;;;16.30;62.70;;;;;;5059536;28;20103;-46
2021/12/13 03:45:32;;;;;;;1.73;1.42;;;16.30;62.60;;;;;;5059575;27;20033;-45
2021/12/13 03:47:58;;;;;;;2.42;1.40;;;16.30;62.40;;;;;;5059273;28;20021;-44
2021/12/13 03:50:31;;;;;;;2.03;1.43;;;16.30;62.40;;;;;;5058032;28;20017;-46
2021/12/13 03:53:00;;;;;;;1.90;1.65;;;16.20;62.40;;;;;;5059419;27;20033;-45
2021/12/13 03:55:27;;;;;;;2.80;1.60;;;16.20;62.40;;;;;;5059203;27;20036;-45
2021/12/13 03:57:56;;;;;;;1.67;1.42;;;16.10;62.50;;;;;;5059591;27;20781;-45
2021/12/13 04:00:24;;;;;;;1.90;1.70;;;16.10;62.50;;;;;;5083012;27;20059;-47
2021/12/13 04:02:51;;;;;;;2.08;1.60;;;16.20;62.60;;;;;;5164031;27;20576;-44
2021/12/13 04:05:20;;;;;;;1.77;1.52;;;16.30;62.80;;;;;;5164035;27;20030;-45
2021/12/13 04:07:52;;;;;;;1.80;1.55;;;16.30;62.60;;;;;;5167783;27;20023;-45
2021/12/13 04:10:31;;;;;;;2.10;1.40;;;16.30;62.40;;;;;;5184537;27;20038;-46
2021/12/13 04:12:58;;;;;;;2.00;1.52;;;16.30;62.30;;;;;;5184898;27;20022;-46
2021/12/13 04:15:47;;;;;;;1.98;1.60;;;16.20;62.20;;;;;;5181398;27;20031;-46
2021/12/13 04:18:28;;;;;;;1.90;1.50;;;16.20;62.30;;;;;;5166174;27;20197;-45
2021/12/13 04:21:00;;;;;;;2.58;1.80;;;16.20;62.40;;;;;;5140612;27;20160;-46
2021/12/13 04:23:26;;;;;;;1.48;1.35;;;16.20;62.40;;;;;;5147235;27;20034;-47
2021/12/13 04:25:52;;;;;;;2.40;1.70;;;16.30;62.60;;;;;;5166304;27;20023;-47
2021/12/13 04:28:22;;;;;;;1.95;1.60;;;16.30;62.40;;;;;;5168062;27;20035;-46
2021/12/13 04:30:53;;;;;;;1.85;1.60;;;16.30;62.30;;;;;;5167574;27;20082;-45
2021/12/13 04:33:25;;;;;;;1.90;1.65;;;16.30;62.30;;;;;;5167738;27;20048;-46
2021/12/13 04:35:54;;;;;;;2.20;1.52;;;16.20;62.30;;;;;;5167448;27;20034;-46
2021/12/13 04:38:25;;;;;;;2.00;1.55;;;16.20;62.30;;;;;;5167813;27;20037;-44
2021/12/13 04:40:51;;;;;;;2.00;1.80;;;16.10;62.30;;;;;;5148667;27;20035;-45
2021/12/13 04:43:18;;;;;;;1.85;1.45;;;16.20;62.50;;;;;;5167894;27;20046;-44
2021/12/13 04:45:48;;;;;;;2.03;1.50;;;16.30;62.50;;;;;;5167400;27;20056;-46
2021/12/13 04:48:26;;;;;;;3.78;1.63;;;16.30;62.30;;;;;;5167630;27;20281;-44
2021/12/13 04:50:58;;;;;;;2.30;1.80;;;16.30;62.20;;;;;;5156964;27;20027;-45
2021/12/13 04:53:30;;;;;;;2.15;1.70;;;16.20;62.10;;;;;;5128278;27;20035;-45
2021/12/13 04:55:59;;;;;;;2.38;1.85;;;16.20;62.20;;;;;;5166316;27;20035;-46
2021/12/13 04:58:25;;;;;;;2.17;1.70;;;16.10;62.30;;;;;;5167430;27;20031;-44
2021/12/13 05:00:54;;;;;;;2.40;1.73;;;16.10;62.30;;;;;;5166839;27;20529;-47
2021/12/13 05:03:21;;;;;;;1.50;1.15;;;16.20;62.50;;;;;;5167265;27;20082;-44
2021/12/13 05:05:47;;;;;;;;;;;16.30;62.50;;;;;;5167636;27;20026;-45
2021/12/13 05:08:14;;;;;;;1.80;1.40;;;16.30;62.30;;;;;;5167255;27;19952;-46
2021/12/13 05:10:43;;;;;;;2.30;1.60;;;16.30;62.20;;;;;;5166817;27;20055;-47
2021/12/13 05:13:12;;;;;;;2.08;1.63;;;16.30;62.20;;;;;;5148542;27;20056;-45
2021/12/13 05:15:41;;;;;;;1.90;1.50;;;16.20;62.20;;;;;;5166873;27;20083;-44
2021/12/13 05:18:19;;;;;;;1.73;1.42;;;16.10;62.20;;;;;;5167066;27;20027;-46
2021/12/13 05:20:45;;;;;;;2.47;1.63;;;16.10;62.20;;;;;;5156976;27;20019;-47
2021/12/13 05:23:13;;;;;;;2.42;1.60;;;16.20;62.40;;;;;;5158549;27;20031;-45
2021/12/13 05:25:45;;;;;;;3.95;1.80;;;16.20;62.40;;;;;;5166719;27;20090;-48
2021/12/13 05:28:12;;;;;;;1.85;1.50;;;16.30;62.40;;;;;;5167009;27;20022;-44
2021/12/13 05:30:50;;;;;;;2.40;1.77;;;16.30;62.20;;;;;;5165612;27;20086;-44
2021/12/13 05:33:18;;;;;;;1.92;1.40;;;16.30;62.10;;;;;;5185505;27;20026;-46
2021/12/13 05:35:47;;;;;;;3.40;2.08;;;16.20;62.10;;;;;;5187532;27;20213;-48
2021/12/13 05:38:43;;;;;;;2.00;1.65;;;16.20;62.10;;;;;;5187678;27;20021;-44
2021/12/13 05:41:26;;;;;;;2.22;1.58;;;16.10;62.30;;;;;;5081222;28;20032;-46
2021/12/13 05:43:57;;;;;;;2.42;1.42;;;16.10;62.30;;;;;;5081704;28;20025;-44
2021/12/13 05:46:44;;;;;;;2.78;1.65;;;16.20;62.50;;;;;;5077617;28;20044;-45
2021/12/13 05:49:19;;;;;;;2.90;1.80;;;16.30;62.40;;;;;;5061674;28;20048;-46
2021/12/13 05:51:47;;;;;;;2.58;1.75;;;16.30;62.20;;;;;;5061117;28;20041;-46
2021/12/13 05:54:22;;;;;;;3.47;1.97;;;16.30;62.10;;;;;;5061282;28;20025;-45
2021/12/13 05:57:16;;;;;;;2.72;1.60;;;16.20;62.10;;;;;;5061553;28;20036;-45
2021/12/13 05:59:57;;;;;;;3.95;2.00;;;16.20;62.10;;;;;;5070709;28;20024;-45
2021/12/13 06:02:56;;;;;;;2.35;1.70;;;16.10;62.10;;;;;;5080904;28;20037;-45
2021/12/13 06:05:40;;;;;;;2.63;2.03;;;16.10;62.20;;;;;;5081353;28;20043;-45
2021/12/13 06:08:12;;;;;;;2.15;1.77;;;16.20;62.20;;;;;;5066152;28;20110;-46
2021/12/13 06:10:47;;;;;;;2.13;1.67;;;16.30;62.30;;;;;;5081083;28;20066;-45
2021/12/13 06:13:38;;;;;;;2.50;1.90;;;16.30;62.10;;;;;;5064437;28;20535;-45
2021/12/13 06:16:04;;;;;;;2.67;1.70;;;16.30;62.00;;;;;;5070740;28;20047;-46
2021/12/13 06:18:36;;;;;;;2.40;1.75;;;16.20;62.00;;;;;;5175209;27;20045;-45
2021/12/13 06:21:33;;;;;;;3.65;1.80;;;16.20;62.00;;;;;;5144567;27;20140;-46
2021/12/13 06:23:59;;;;;;;2.60;1.83;;;16.10;62.10;;;;;;5167339;27;20038;-45
2021/12/13 06:26:29;;;;;;;2.97;1.90;;;16.10;62.20;;;;;;5130098;27;20026;-44
2021/12/13 06:28:57;;;;;;;2.45;1.75;;;16.30;62.30;;;;;;5165421;27;20050;-46
2021/12/13 06:31:24;;;;;;;2.10;1.80;;;16.30;62.20;;;;;;5165440;27;20022;-44
2021/12/13 06:34:02;;;;;;;2.00;1.80;;;16.30;62.00;;;;;;5146847;27;20035;-45
2021/12/13 06:36:31;;;;;;;2.40;1.73;;;16.20;61.90;;;;;;5165441;27;20741;-46
2021/12/13 06:39:04;;;;;;;2.22;2.03;;;16.20;61.90;;;;;;5165396;27;20023;-46
2021/12/13 06:41:31;;;;;;;2.50;1.77;;;16.10;62.00;;;;;;5164314;27;20452;-45
2021/12/13 06:44:38;;;;;;;3.08;1.67;;;16.10;62.10;;;;;;5165189;27;20425;-46
2021/12/13 06:47:08;;;;;;;2.90;1.70;;;16.20;62.10;;;;;;5043657;28;20041;-46
2021/12/13 06:49:47;;;;;;;2.55;1.83;;;16.30;62.20;;;;;;5060634;28;20054;-45
2021/12/13 06:52:13;;;;;;;2.30;1.60;;;16.30;62.00;;;;;;5060254;28;20033;-44
2021/12/13 06:54:47;;;;;;;2.80;1.50;;;16.30;61.80;;;;;;5051956;28;20080;-46
2021/12/13 06:57:20;;;;;;;3.28;1.67;;;16.20;61.80;;;;;;5040268;28;20038;-46
2021/12/13 06:59:57;;;;;;;3.22;1.65;;;16.20;61.90;;;;;;5050997;28;20025;-44
2021/12/13 07:02:59;;;;;;;3.70;1.63;;;16.10;61.90;;;;;;5059665;28;20131;-45
2021/12/13 07:05:34;;;;;;;2.45;1.83;;;16.10;62.00;;;;;;5060207;28;20558;-46
2021/12/13 07:08:44;;;;;;;2.75;1.80;;;16.20;62.10;;;;;;5060206;28;20060;-46
2021/12/13 07:11:15;;;;;;;;;;;16.30;62.10;;;;;;5020848;28;20037;-46
2021/12/13 07:13:51;;;;;;;2.42;1.50;;;16.30;61.90;;;;;;5019983;28;19909;-45
2021/12/13 07:16:24;;;;;;;2.00;1.50;;;16.30;61.70;;;;;;5019799;28;20530;-45
2021/12/13 07:19:00;;;;;;;2.40;1.80;;;16.20;61.70;;;;;;5020313;28;20034;-47
2021/12/13 07:21:32;;;;;;;2.20;1.75;;;16.20;61.90;;;;;;5023238;28;20121;-45
2021/12/13 07:24:09;;;;;;;1.90;1.50;;;16.10;61.90;;;;;;5102752;28;20035;-46
2021/12/13 07:26:49;;;;;;;4.47;1.77;;;16.10;62.00;;;;;;5120608;28;20023;-45
2021/12/13 07:29:49;;;;;;;2.40;1.67;;;16.20;62.10;;;;;;5103306;28;20112;-51
2021/12/13 07:32:16;;;;;;;2.00;1.48;;;16.30;62.10;;;;;;5102916;28;20059;-46
2021/12/13 07:34:59;;;;;;;2.08;1.27;;;16.30;61.80;;;;;;5120172;28;20120;-46
2021/12/13 07:37:35;;;;;;;3.03;1.67;;;16.30;61.60;;;;;;5122895;27;20027;-47
2021/12/13 07:40:32;;;;;;;2.97;1.58;;;16.20;61.70;;;;;;5120437;28;20051;-48
2021/12/13 07:43:22;;;;;;;2.30;1.67;;;16.20;61.80;;;;;;5045149;28;20081;-45
2021/12/13 07:46:09;;;;;;;2.72;1.63;;;16.10;61.80;;;;;;5039687;28;20089;-45
2021/12/13 07:48:53;;;;;;;2.20;1.60;;;16.10;61.90;;;;;;5039681;28;20034;-47
2021/12/13 07:51:22;;;;;;;2.33;1.50;;;16.20;61.90;;;;;;5053053;28;20115;-46
2021/12/13 07:53:51;;;;;;;2.30;1.50;;;16.30;62.00;;;;;;5126097;27;20025;-45
2021/12/13 07:56:45;;;;;;;2.33;1.52;;;16.30;61.70;;;;;;5059185;28;20147;-45
2021/12/13 07:59:13;;;;;;;1.80;1.30;;;16.30;61.50;;;;;;5062779;28;20059;-47
2021/12/13 08:01:49;;;;;;;;;;;16.20;61.60;;;;;;5141517;27;20062;-47
2021/12/13 08:04:18;;;;;;;1.85;1.23;;;16.20;61.70;;;;;;5184804;27;20001;-46
2021/12/13 08:06:50;;;;;;;1.98;1.40;;;16.10;61.70;;;;;;5185259;27;20022;-45
2021/12/13 08:09:21;;;;;;;2.85;1.20;;;16.10;61.80;;;;;;5174547;27;20065;-45
2021/12/13 08:12:15;;;;;;;1.48;1.08;;;16.20;61.90;;;;;;5164169;27;20055;-46
2021/12/13 08:14:42;;;;;;;2.53;1.27;;;16.30;61.90;;;;;;5125878;27;20073;-45
2021/12/13 08:17:20;;;;;;;2.50;1.42;;;16.30;61.70;;;;;;5164023;27;20034;-45
2021/12/13 08:20:03;;;;;;;1.65;1.38;;;16.30;61.50;;;;;;5163558;27;20027;-44
2021/12/13 08:22:30;;;;;;;1.77;1.55;;;16.20;61.40;;;;;;5148642;27;20026;-44
2021/12/13 08:25:00;;;;;;;1.90;1.50;;;16.20;61.60;;;;;;5154779;27;20666;-45
2021/12/13 08:27:32;;;;;;;1.60;1.40;;;16.10;61.70;;;;;;5164051;27;20038;-45
2021/12/13 08:30:24;;;;;;;2.08;1.33;;;16.10;61.80;;;;;;5164064;27;20040;-46
2021/12/13 08:33:15;;;;;;;1.50;1.10;;;16.20;61.80;;;;;;5159824;27;20081;-45
2021/12/13 08:36:02;;;;;;;1.25;1.10;;;16.30;61.80;;;;;;5163781;27;20045;-45
2021/12/13 08:38:39;;;;;;;1.80;1.50;;;16.30;61.60;;;;;;5164122;27;20023;-45
2021/12/13 08:41:23;;;;;;;1.60;1.17;;;16.20;61.40;;;;;;5163868;27;20037;-47
2021/12/13 08:43:55;;;;;;;1.55;1.20;;;16.20;61.50;;;;;;5163355;27;20562;-44
2021/12/13 08:46:42;;;;;;;2.38;1.50;;;16.10;61.60;;;;;;5163736;27;20027;-47
2021/12/13 08:49:29;;;;;;;1.58;1.05;;;16.10;61.70;;;;;;5163942;27;20027;-44
2021/12/13 08:52:07;;;;;;;1.08;0.95;;;16.20;61.80;;;;;;5162728;27;20018;-45
2021/12/13 08:54:56;;;;;;;1.63;1.20;;;16.30;61.80;;;;;;5163290;27;20756;-47
2021/12/13 08:57:45;;;;;;;1.65;1.17;;;16.30;61.50;;;;;;5148980;27;20067;-45
2021/12/13 09:00:20;;;;;;;1.88;1.30;;;16.30;61.40;;;;;;5162881;27;20033;-44
2021/12/13 09:03:14;;;;;;;1.35;1.20;;;16.20;61.40;;;;;;5163732;27;20027;-45
2021/12/13 09:05:56;;;;;;;3.17;1.70;;;16.10;61.50;;;;;;5165082;27;20056;-46
2021/12/13 09:08:47;;;;;;;1.17;1.00;;;16.10;61.60;;;;;;5149282;27;20031;-45
2021/12/13 09:11:25;;;;;;;1.38;1.20;;;16.20;61.60;;;;;;5167442;27;20018;-44
2021/12/13 09:14:21;;;;;;;1.42;1.02;;;16.20;61.60;;;;;;5167046;27;20023;-45
2021/12/13 09:17:07;;;;;;;3.65;1.40;;;16.30;61.50;;;;;;5167143;27;20571;-46
2021/12/13 09:19:53;;;;;;;1.80;1.30;;;16.30;61.30;;;;;;5150160;27;20038;-48
2021/12/13 09:22:42;;;;;;;1.35;1.00;;;16.20;61.20;;;;;;5146195;27;20057;-46
2021/12/13 09:25:26;;;;;;;1.13;0.98;;;16.20;61.30;;;;;;5158991;27;20030;-47
2021/12/13 09:27:56;;;;;;;1.02;0.93;;;16.10;61.40;;;;;;5167150;27;20031;-45
2021/12/13 09:30:42;;;;;;;1.40;1.30;;;16.10;61.50;;;;;;5169596;27;20098;-45
2021/12/13 09:33:22;;;;;;;1.30;0.93;;;16.20;61.40;;;;;;5167067;27;20112;-45
2021/12/13 09:35:59;;;;;;;1.60;1.10;;;16.30;61.50;;;;;;5166657;27;20031;-46
2021/12/13 09:38:41;;;;;;;1.02;0.93;;;16.30;61.20;;;;;;5166751;27;20023;-46
2021/12/13 09:41:16;;;;;;;1.67;1.05;;;16.30;61.00;;;;;;5166692;27;20034;-48
2021/12/13 09:43:54;;;;;;;1.77;1.10;;;16.20;61.20;;;;;;5166646;27;20044;-44
2021/12/13 09:46:58;;;;;;;1.58;1.08;;;16.10;61.20;;;;;;5166606;27;20030;-47
2021/12/13 09:49:53;;;;;;;1.77;1.20;;;16.10;61.40;;;;;;5167069;27;20026;-45
2021/12/13 09:52:32;;;;;;;1.42;1.20;;;16.20;61.40;;;;;;5145776;27;20216;-45
2021/12/13 09:55:05;;;;;;;1.23;1.13;;;16.30;61.30;;;;;;5156861;27;20034;-45
2021/12/13 09:57:33;;;;;;;2.70;1.30;;;16.30;61.20;;;;;;5178224;27;20014;-45
2021/12/13 10:00:00;;;;;;;1.30;1.20;;;16.30;61.00;;;;;;5174213;27;20052;-44
2021/12/13 10:02:31;;;;;;;2.38;1.10;;;16.20;61.00;;;;;;5166258;27;20081;-47
2021/12/13 10:04:57;;;;;;;1.02;0.93;;;16.20;61.10;;;;;;5166302;27;20031;-46
2021/12/13 10:07:30;;;;;;;1.23;1.10;;;16.10;61.10;;;;;;5166407;27;20023;-45
2021/12/13 10:10:11;;;;;;;1.20;1.10;;;16.10;61.30;;;;;;5166259;27;20026;-45
2021/12/13 10:12:55;;;;;;;1.40;1.13;;;16.20;61.30;;;;;;5166322;27;20100;-45
2021/12/13 10:15:34;;;;;;;1.13;0.90;;;16.30;61.30;;;;;;5165675;27;20042;-47
2021/12/13 10:18:12;;;;;;;1.90;1.27;;;16.30;61.00;;;;;;5166062;27;20471;-46
2021/12/13 10:20:51;;;;;;;1.15;1.05;;;16.30;60.90;;;;;;5157389;27;20029;-44
2021/12/13 10:23:20;;;;;;;1.35;1.10;;;16.20;61.00;;;;;;5145347;27;20019;-45
2021/12/13 10:25:49;;;;;;;1.50;1.15;;;16.10;61.10;;;;;;5163203;27;20053;-44
2021/12/13 10:28:28;;;;;;;1.67;1.30;;;16.10;61.20;;;;;;5181324;27;20402;-46
2021/12/13 10:31:20;;;;;;;1.10;0.90;;;16.10;61.20;;;;;;5145213;27;20030;-45
2021/12/13 10:33:46;;;;;;;1.35;1.05;;;16.20;61.20;;;;;;5145022;27;20038;-45
2021/12/13 10:36:12;;;;;;;1.42;1.10;;;16.30;61.50;;;;;;5151236;27;20034;-46
2021/12/13 10:38:47;;;;;;;1.20;1.10;;;16.20;60.80;;;;;;5147140;27;20030;-44
2021/12/13 10:41:22;;;;;;;1.23;1.10;;;16.20;60.80;;;;;;5165590;27;20052;-45
2021/12/13 10:43:58;;;;;;;2.40;0.90;;;16.10;61.00;;;;;;5165643;27;20025;-48
2021/12/13 10:46:29;;;;;;;0.95;0.77;;;16.10;61.00;;;;;;5146421;27;20018;-47
2021/12/13 10:48:59;;;;;;;1.08;0.90;;;16.20;61.10;;;;;;5165434;27;20027;-47
2021/12/13 10:51:39;;;;;;;1.10;0.90;;;16.30;61.10;;;;;;5164338;27;20482;-47
2021/12/13 10:54:09;;;;;;;2.40;0.90;;;16.30;60.80;;;;;;5165295;27;20042;-46
2021/12/13 10:56:40;;;;;;;1.58;1.05;;;16.20;60.70;;;;;;5164988;27;20041;-45
2021/12/13 10:59:09;;;;;;;1.10;0.95;;;16.20;60.70;;;;;;5164992;27;20023;-45
2021/12/13 11:01:47;;;;;;;1.65;1.00;;;16.10;60.80;;;;;;5088940;27;20064;-47
2021/12/13 11:04:16;;;;;;;1.97;1.00;;;16.00;60.90;;;;;;5040449;28;20059;-44
2021/12/13 11:06:42;;;;;;;1.10;1.00;;;16.10;61.00;;;;;;5040088;28;20034;-46
2021/12/13 11:09:10;;;;;;;2.35;1.10;;;16.20;60.90;;;;;;5049371;28;20029;-45
2021/12/13 11:11:39;;;;;;;1.27;0.95;;;16.30;60.70;;;;;;5060180;27;20040;-47
2021/12/13 11:14:09;;;;;;;1.27;1.00;;;16.30;60.60;;;;;;5060012;28;20025;-47
2021/12/13 11:16:39;;;;;;;1.70;0.90;;;16.20;60.50;;;;;;5059435;28;20032;-47
2021/12/13 11:19:06;;;;;;;1.63;1.00;;;16.10;60.60;;;;;;5059703;28;20025;-46
2021/12/13 11:21:36;;;;;;;1.58;1.00;;;16.10;60.70;;;;;;5060814;27;20036;-44
2021/12/13 11:24:04;;;;;;;1.40;0.90;;;16.10;60.90;;;;;;5076747;28;20029;-45
2021/12/13 11:26:32;;;;;;;1.50;1.10;;;16.20;60.80;;;;;;5059404;28;20032;-46
2021/12/13 11:28:59;;;;;;;1.42;1.08;;;16.30;60.70;;;;;;5059125;28;20021;-45
2021/12/13 11:31:28;;;;;;;1.38;1.20;;;16.30;60.50;;;;;;5059570;27;20025;-45
2021/12/13 11:34:01;;;;;;;1.33;1.13;;;16.20;60.30;;;;;;5059943;27;20087;-45
2021/12/13 11:37:04;;;;;;;1.73;1.00;;;16.20;60.50;;;;;;5059291;28;20489;-44
2021/12/13 11:39:52;;;;;;;1.38;1.00;;;16.10;60.60;;;;;;5059598;27;20039;-46
2021/12/13 11:42:46;;;;;;;1.10;1.00;;;16.10;60.70;;;;;;5059790;27;20441;-46
2021/12/13 11:45:23;;;;;;;1.30;1.02;;;16.20;60.80;;;;;;5059655;27;20029;-46
2021/12/13 11:48:13;;;;;;;1.27;1.08;;;16.20;60.70;;;;;;5059167;27;20144;-45
2021/12/13 11:50:55;;;;;;;1.35;0.90;;;16.30;60.50;;;;;;5060742;27;20029;-45
2021/12/13 11:53:59;;;;;;;1.20;0.85;;;16.20;60.30;;;;;;5121096;27;20033;-46
2021/12/13 11:57:02;;;;;;;1.95;1.20;;;16.10;60.40;;;;;;5038868;28;20067;-46
2021/12/13 12:00:09;;;;;;;1.27;0.90;;;16.10;60.60;;;;;;5047759;28;20486;-45
2021/12/13 12:03:07;;;;;;;1.58;1.33;;;16.20;61.10;;;;;;5157529;27;20055;-47
2021/12/13 12:06:05;;;;;;;0.50;0.50;;;16.30;60.70;;;;;;5164299;27;20486;-48
2021/12/13 12:08:53;;;;;;;1.03;0.83;;;16.30;60.50;;;;;;5150101;27;20126;-50
2021/12/13 12:11:55;;;;;;;1.45;1.00;;;16.20;60.30;;;;;;5164120;27;20038;-44
2021/12/13 12:14:25;;;;;;;1.10;1.00;;;16.20;60.40;;;;;;5164059;27;20030;-48
2021/12/13 12:16:55;;;;;;;0.98;0.77;;;16.10;60.50;;;;;;5163596;27;20035;-45
2021/12/13 12:19:32;;;;;;;1.20;0.80;;;16.10;60.60;;;;;;5163890;27;20033;-47
2021/12/13 12:22:03;;;;;;;1.08;0.80;;;16.20;60.60;;;;;;5162995;27;20035;-44
2021/12/13 12:24:34;;;;;;;1.10;0.88;;;16.30;60.50;;;;;;5164022;27;20026;-44
2021/12/13 12:27:12;;;;;;;1.20;0.90;;;16.30;60.30;;;;;;5166159;27;20060;-46
2021/12/13 12:29:41;;;;;;;1.33;1.08;;;16.20;60.30;;;;;;5163744;27;20090;-45
2021/12/13 12:32:18;;;;;;;1.25;0.93;;;16.10;60.40;;;;;;5163701;27;20027;-45
2021/12/13 12:34:52;;;;;;;0.90;0.80;;;16.10;60.60;;;;;;5163712;27;20030;-45
2021/12/13 12:37:50;;;;;;;1.20;0.98;;;16.20;60.50;;;;;;5163505;27;20424;-44
2021/12/13 12:40:22;;;;;;;1.60;0.98;;;16.30;60.60;;;;;;5164727;27;20018;-45
2021/12/13 12:42:50;;;;;;;1.23;0.90;;;16.30;60.40;;;;;;5149394;27;20463;-45
2021/12/13 12:45:16;;;;;;;1.40;0.90;;;16.30;60.20;;;;;;5167696;27;20046;-48
2021/12/13 12:48:00;;;;;;;1.25;0.82;;;16.20;60.30;;;;;;5167422;27;20018;-46
2021/12/13 12:50:54;;;;;;;1.25;0.85;;;16.10;60.40;;;;;;5161006;27;20083;-44
2021/12/13 12:53:42;;;;;;;1.10;1.00;;;16.10;60.50;;;;;;5128359;27;20031;-47
2021/12/13 12:56:33;;;;;;;0.85;0.85;;;16.20;60.60;;;;;;5146710;27;20065;-44
2021/12/13 12:59:13;;;;;;;1.00;0.90;;;16.30;60.60;;;;;;5150820;27;20066;-44
2021/12/13 13:01:43;;;;;;;1.45;1.02;;;16.30;60.30;;;;;;5166688;27;20046;-46
2021/12/13 13:04:24;;;;;;;1.20;0.90;;;16.20;60.20;;;;;;5167071;27;20026;-47
2021/12/13 13:07:00;;;;;;;1.40;0.88;;;16.10;60.40;;;;;;5167560;27;20030;-47
2021/12/13 13:09:48;;;;;;;1.27;0.90;;;16.10;60.40;;;;;;5167297;27;20034;-46
2021/12/13 13:12:25;;;;;;;1.08;0.80;;;16.20;60.50;;;;;;5167221;27;20019;-46
2021/12/13 13:14:53;;;;;;;1.20;0.95;;;16.30;60.60;;;;;;5166878;27;20427;-45
2021/12/13 13:17:24;;;;;;;1.58;1.10;;;16.30;60.30;;;;;;5167148;27;20030;-45
2021/12/13 13:19:50;;;;;;;1.10;1.00;;;16.30;60.20;;;;;;5165297;27;20054;-45
2021/12/13 13:22:29;;;;;;;1.13;0.90;;;16.20;60.30;;;;;;5146227;27;20056;-44
2021/12/13 13:25:01;;;;;;;1.15;0.95;;;16.10;60.30;;;;;;5157225;27;20083;-46
2021/12/13 13:27:28;;;;;;;1.13;0.90;;;16.10;60.60;;;;;;5166845;27;20050;-47
2021/12/13 13:29:55;;;;;;;1.45;1.00;;;16.10;60.50;;;;;;5169559;27;20019;-46
2021/12/13 13:32:21;;;;;;;0.77;0.73;;;16.30;60.60;;;;;;5166860;27;20027;-47
2021/12/13 13:34:51;;;;;;;0.90;0.80;;;16.30;60.40;;;;;;5166424;27;20058;-46
2021/12/13 13:37:22;;;;;;;1.20;0.90;;;16.30;60.20;;;;;;5167136;27;20027;-45
2021/12/13 13:39:50;;;;;;;0.93;0.80;;;16.20;60.20;;;;;;5166644;27;20026;-44
2021/12/13 13:42:19;;;;;;;1.25;1.00;;;16.10;60.30;;;;;;5166666;27;20083;-46